Terminal Aerodrome Forecast
Issued by NWS Wakefield, VA

Home | Current Version | Previous Version | Text Only | Print | Product List | Glossary On
Versions: 1 2 3 4 5 6 7 8 9 10 11 12 13 14 15 16 17 18 19 20 21 22 23
000
FTUS41 KAKQ 171448 AAB
TAFRIC
TAF AMD
KRIC 171448Z 1715/1812 20006KT P6SM BKN008 OVC015
      TEMPO 1715/1718 4SM -RA BR SCT008 OVC015
     FM171800 20008KT P6SM OVC015
     FM180000 20010KT P6SM OVC010=

USA.gov is the U.S. government's official web portal to all federal, state and local government web resources and services.